Time;durP1;ratioP1;P1;durP2;ratioP2;P2;SDS_P1;SDS_P2;PMS_P1;PMS_P2;Temp;Humidity;BMP_temperature;BMP_pressure;BME280_temperature;BME280_humidity;BME280_pressure;Samples;Min_cycle;Max_cycle;Signal;HPM_P1;HPM_P2
2024/01/29 00:01:48;;;;;;;43.55;18.85;;;;;;;10.64;100.00;100985.00;4935072;29;20031;-90
2024/01/29 00:04:13;;;;;;;40.85;17.63;;;;;;;10.67;100.00;100985.66;4950287;29;20042;-90
2024/01/29 00:06:39;;;;;;;44.92;19.52;;;;;;;10.64;100.00;100993.56;4933663;29;20032;-91
2024/01/29 00:09:05;;;;;;;45.22;18.80;;;;;;;10.64;100.00;100985.84;4933861;29;20082;-91
2024/01/29 00:11:32;;;;;;;50.78;19.20;;;;;;;10.62;100.00;100979.91;4933263;29;20031;-90
2024/01/29 00:13:57;;;;;;;51.08;18.70;;;;;;;10.69;100.00;100989.03;4935180;29;20106;-91
2024/01/29 00:16:23;;;;;;;68.57;21.80;;;;;;;10.69;100.00;100983.84;4935228;29;20107;-91
2024/01/29 00:18:48;;;;;;;62.70;20.77;;;;;;;10.67;100.00;100990.84;4934291;29;20110;-91
2024/01/29 00:21:14;;;;;;;42.33;18.30;;;;;;;10.71;100.00;100987.19;4935063;29;20024;-90
2024/01/29 00:23:39;;;;;;;55.92;18.40;;;;;;;10.68;100.00;100977.03;4934968;29;20031;-91
2024/01/29 00:26:05;;;;;;;45.47;17.35;;;;;;;10.69;100.00;100973.53;4933740;29;20382;-91
2024/01/29 00:28:30;;;;;;;53.88;19.92;;;;;;;10.70;100.00;100967.47;4933225;29;20275;-92
2024/01/29 00:30:55;;;;;;;41.10;18.67;;;;;;;10.82;100.00;100967.75;4934877;29;20493;-91
2024/01/29 00:33:21;;;;;;;60.15;19.95;;;;;;;10.72;100.00;100967.38;4933997;29;20055;-90
2024/01/29 00:35:46;;;;;;;64.53;19.60;;;;;;;10.66;100.00;100970.28;4934910;29;20028;-90
2024/01/29 00:38:11;;;;;;;44.83;17.92;;;;;;;10.73;100.00;100978.53;4934933;29;20087;-91
2024/01/29 00:40:37;;;;;;;45.63;19.55;;;;;;;10.70;100.00;100982.97;4933338;29;20024;-91
2024/01/29 00:43:02;;;;;;;44.50;17.73;;;;;;;10.72;100.00;100985.44;4933431;29;20031;-91
2024/01/29 00:45:28;;;;;;;45.10;18.65;;;;;;;10.71;100.00;100982.03;4933479;29;20061;-91
2024/01/29 00:47:53;;;;;;;36.13;16.70;;;;;;;10.73;100.00;100975.94;4933312;29;20036;-91
2024/01/29 00:50:19;;;;;;;44.67;20.67;;;;;;;10.66;100.00;100991.75;4933538;29;20031;-91
2024/01/29 00:52:44;;;;;;;47.13;19.45;;;;;;;10.64;100.00;100991.00;4933425;29;20477;-90
2024/01/29 00:55:10;;;;;;;47.03;18.77;;;;;;;10.68;100.00;100992.53;4933370;29;20564;-90
2024/01/29 00:57:35;;;;;;;51.47;18.55;;;;;;;10.66;100.00;100998.69;4933601;29;20031;-90
2024/01/29 01:00:00;;;;;;;47.72;20.05;;;;;;;10.62;100.00;100992.81;4934653;29;20039;-90
2024/01/29 01:02:26;;;;;;;45.58;20.60;;;;;;;10.67;100.00;101011.50;4934785;29;20102;-90
2024/01/29 01:04:51;;;;;;;40.72;18.40;;;;;;;10.66;100.00;101004.66;4933292;29;20023;-90
2024/01/29 01:07:17;;;;;;;49.13;18.98;;;;;;;10.68;100.00;101008.00;4934231;29;20055;-91
2024/01/29 01:09:42;;;;;;;46.50;20.33;;;;;;;10.70;100.00;101011.38;4934575;29;20040;-90
2024/01/29 01:12:07;;;;;;;56.15;19.35;;;;;;;10.68;100.00;101013.19;4933608;29;20024;-91
2024/01/29 01:14:33;;;;;;;47.00;17.52;;;;;;;10.73;100.00;101009.50;4933333;29;20020;-90
2024/01/29 01:16:58;;;;;;;42.38;18.05;;;;;;;10.76;100.00;101014.56;4934664;29;20035;-91
2024/01/29 01:19:24;;;;;;;47.58;19.40;;;;;;;10.73;100.00;101019.84;4933413;29;20110;-90
2024/01/29 01:21:49;;;;;;;46.25;18.33;;;;;;;10.69;100.00;101014.84;4934506;29;20163;-90
2024/01/29 01:24:14;;;;;;;45.85;17.92;;;;;;;10.71;100.00;101013.03;4934322;29;20030;-91
2024/01/29 01:26:40;;;;;;;41.50;17.73;;;;;;;10.75;100.00;101023.19;4933207;29;20486;-91
2024/01/29 01:29:05;;;;;;;41.67;17.48;;;;;;;10.74;100.00;101021.53;4932703;29;20067;-90
2024/01/29 01:31:31;;;;;;;46.53;19.00;;;;;;;10.75;100.00;101023.19;4931940;29;20027;-91
2024/01/29 01:33:56;;;;;;;38.58;17.42;;;;;;;10.74;100.00;101024.13;4933314;29;20422;-90
2024/01/29 01:36:22;;;;;;;50.30;18.55;;;;;;;10.73;100.00;101019.84;4934638;29;20032;-90
2024/01/29 01:38:47;;;;;;;45.78;18.63;;;;;;;10.71;100.00;101018.19;4934477;29;20479;-91
2024/01/29 01:41:13;;;;;;;35.80;16.90;;;;;;;10.76;100.00;101011.97;4934197;29;20491;-91
2024/01/29 01:43:38;;;;;;;54.75;20.67;;;;;;;10.90;100.00;101017.28;4934330;29;20063;-91
2024/01/29 01:46:04;;;;;;;61.33;19.48;;;;;;;10.83;100.00;101016.75;4933181;29;20067;-90
2024/01/29 01:48:38;;;;;;;49.45;18.90;;;;;;;10.81;100.00;101015.16;4934134;29;20043;-90
2024/01/29 01:51:04;;;;;;;34.13;15.77;;;;;;;10.82;100.00;101014.22;4934326;29;20068;-91
2024/01/29 01:53:31;;;;;;;28.70;14.60;;;;;;;10.82;100.00;101011.66;4933239;29;20032;-91
2024/01/29 01:55:59;;;;;;;49.92;17.73;;;;;;;10.83;100.00;101010.75;4933426;29;20416;-90
2024/01/29 01:58:26;;;;;;;34.33;15.65;;;;;;;10.74;100.00;101001.69;4934212;29;20390;-91
2024/01/29 02:00:51;;;;;;;29.98;15.45;;;;;;;10.82;100.00;101014.22;4935373;29;20032;-90
2024/01/29 02:03:16;;;;;;;38.80;18.35;;;;;;;10.75;100.00;101011.09;4936005;29;20443;-90
2024/01/29 02:05:42;;;;;;;44.03;17.10;;;;;;;10.76;100.00;101006.81;4936949;29;20070;-91
2024/01/29 02:08:07;;;;;;;35.17;15.43;;;;;;;10.78;100.00;101012.69;4937044;29;20028;-92
2024/01/29 02:10:33;;;;;;;27.10;14.95;;;;;;;10.79;100.00;101010.06;4937486;29;20409;-91
2024/01/29 02:12:59;;;;;;;51.70;19.17;;;;;;;10.78;100.00;101005.81;4937704;29;20038;-90
2024/01/29 02:15:24;;;;;;;43.05;17.48;;;;;;;10.74;100.00;101006.03;4936639;29;20020;-91
2024/01/29 02:17:50;;;;;;;43.10;18.27;;;;;;;10.71;100.00;101007.84;4937348;29;20386;-91
2024/01/29 02:20:16;;;;;;;39.50;17.92;;;;;;;10.69;100.00;101004.50;4937149;29;20486;-90
2024/01/29 02:22:45;;;;;;;41.33;18.65;;;;;;;10.74;100.00;101000.88;4937225;29;20024;-91
2024/01/29 02:25:12;;;;;;;39.78;17.63;;;;;;;10.73;100.00;100999.19;4935316;29;20027;-90
2024/01/29 02:27:37;;;;;;;46.33;17.88;;;;;;;10.70;100.00;101003.63;4937208;29;20043;-90
2024/01/29 02:30:04;;;;;;;46.05;18.30;;;;;;;10.68;100.00;101002.84;4937220;29;20050;-91
2024/01/29 02:32:30;;;;;;;55.05;21.80;;;;;;;10.64;100.00;100995.31;4937519;29;20027;-90
2024/01/29 02:34:55;;;;;;;51.20;20.58;;;;;;;10.62;100.00;100992.81;4936996;29;20023;-91
2024/01/29 02:37:21;;;;;;;49.35;20.50;;;;;;;10.64;100.00;100991.00;4936869;29;20063;-91
2024/01/29 02:39:50;;;;;;;48.20;19.48;;;;;;;10.66;100.00;100991.75;4936376;29;20028;-90
2024/01/29 02:42:16;;;;;;;50.90;19.17;;;;;;;10.70;100.00;100993.28;4935990;29;20391;-91
2024/01/29 02:44:41;;;;;;;46.33;19.08;;;;;;;10.68;100.00;100992.53;4951736;29;20047;-91
2024/01/29 02:47:07;;;;;;;47.75;18.20;;;;;;;10.67;100.00;100998.56;4936787;29;20376;-91
2024/01/29 02:49:33;;;;;;;56.88;21.20;;;;;;;10.68;100.00;101000.28;4936793;29;20383;-91
2024/01/29 02:51:58;;;;;;;37.25;17.65;;;;;;;10.66;100.00;100989.19;4936769;29;20020;-92
2024/01/29 02:54:24;;;;;;;36.67;17.63;;;;;;;10.65;100.00;101000.41;4936022;29;20140;-91
2024/01/29 02:56:49;;;;;;;39.33;19.70;;;;;;;10.71;100.00;100989.78;4936410;29;20127;-91
2024/01/29 02:59:14;;;;;;;48.60;19.50;;;;;;;10.76;100.00;100992.13;4936779;29;20032;-91
2024/01/29 03:01:40;;;;;;;44.05;17.33;;;;;;;10.76;100.00;100986.16;4936527;29;20486;-90
2024/01/29 03:04:05;;;;;;;41.63;17.50;;;;;;;10.69;100.00;100989.03;4936816;29;20034;-90
2024/01/29 03:06:30;;;;;;;49.63;18.45;;;;;;;10.71;100.00;100978.63;4935485;29;20024;-91
2024/01/29 03:08:56;;;;;;;45.60;19.88;;;;;;;10.68;100.00;100963.25;4935701;29;20039;-91
2024/01/29 03:11:21;;;;;;;46.30;19.17;;;;;;;10.63;100.00;100953.19;4934823;29;20027;-91
2024/01/29 03:13:47;;;;;;;51.75;18.88;;;;;;;10.60;100.00;100952.50;4936348;29;20075;-91
2024/01/29 03:16:12;;;;;;;43.70;19.30;;;;;;;10.61;100.00;100954.19;4936075;29;20399;-91
2024/01/29 03:18:38;;;;;;;42.63;17.88;;;;;;;10.59;100.00;100956.81;4936073;29;20035;-91
2024/01/29 03:21:03;;;;;;;44.38;19.20;;;;;;;10.62;100.00;100968.75;4936410;29;20479;-91
2024/01/29 03:23:29;;;;;;;36.63;18.50;;;;;;;10.62;100.00;100967.00;4936258;29;20024;-91
2024/01/29 03:25:54;;;;;;;44.50;18.55;;;;;;;10.58;100.00;100965.47;4935402;29;20082;-91
2024/01/29 03:28:19;;;;;;;51.35;18.58;;;;;;;10.62;100.00;100967.00;4935927;29;20032;-91
2024/01/29 03:30:45;;;;;;;38.58;17.27;;;;;;;10.65;100.00;100966.84;4936183;29;20492;-90
2024/01/29 03:33:10;;;;;;;45.67;17.90;;;;;;;10.60;100.00;100961.06;4935918;29;20543;-91
2024/01/29 03:35:35;;;;;;;41.30;17.42;;;;;;;10.59;100.00;100959.41;4935993;29;20094;-91
2024/01/29 03:38:01;;;;;;;47.50;16.98;;;;;;;10.59;100.00;100969.72;4934834;29;20031;-91
2024/01/29 03:40:26;;;;;;;49.35;17.27;;;;;;;10.57;100.00;100957.81;4934684;29;20038;-90
2024/01/29 03:42:51;;;;;;;38.92;16.33;;;;;;;10.57;100.00;100955.22;4935750;29;20027;-91
2024/01/29 03:45:17;;;;;;;40.15;17.88;;;;;;;10.60;100.00;100952.50;4934398;29;20023;-91
2024/01/29 03:47:42;;;;;;;39.22;17.40;;;;;;;10.58;100.00;100949.97;4935551;29;20126;-91
2024/01/29 03:50:08;;;;;;;48.30;18.58;;;;;;;10.54;100.00;100952.81;4935610;29;20087;-91
2024/01/29 03:52:33;;;;;;;35.42;15.63;;;;;;;10.60;100.00;100958.47;4935707;29;20479;-91
2024/01/29 03:54:58;;;;;;;46.80;19.67;;;;;;;10.58;100.00;100952.56;4934841;29;20102;-91
2024/01/29 03:57:24;;;;;;;40.72;17.63;;;;;;;10.54;100.00;100948.47;4933958;29;20023;-91
2024/01/29 03:59:49;;;;;;;44.10;17.80;;;;;;;10.49;100.00;100950.44;4934717;29;20479;-90
2024/01/29 04:02:14;;;;;;;36.63;17.20;;;;;;;10.47;100.00;100957.44;4935439;29;20027;-90
2024/01/29 04:04:42;;;;;;;48.30;18.33;;;;;;;10.45;100.00;100957.50;4935619;29;20032;-90
2024/01/29 04:07:08;;;;;;;37.35;16.70;;;;;;;10.53;100.00;100951.13;4934246;29;20105;-91
2024/01/29 04:09:33;;;;;;;39.67;17.08;;;;;;;10.53;100.00;100954.53;4933493;29;20048;-91
2024/01/29 04:11:59;;;;;;;41.25;16.70;;;;;;;10.55;100.00;100965.63;4935265;29;20522;-91
2024/01/29 04:14:25;;;;;;;40.00;16.48;;;;;;;10.56;100.00;100971.63;4935577;29;20031;-91
2024/01/29 04:16:50;;;;;;;48.67;17.52;;;;;;;10.62;100.00;100973.91;4935063;29;20035;-91
2024/01/29 04:19:16;;;;;;;36.97;16.67;;;;;;;10.64;100.00;100970.34;4935224;29;20099;-91
2024/01/29 04:21:42;;;;;;;43.88;16.48;;;;;;;10.62;100.00;100950.69;4935367;29;20102;-91
2024/01/29 04:24:11;;;;;;;40.88;17.00;;;;;;;10.61;100.00;100955.00;4933927;29;20118;-90
2024/01/29 04:26:40;;;;;;;47.95;17.05;;;;;;;10.57;100.00;100945.75;4933853;29;20064;-91
2024/01/29 04:29:08;;;;;;;50.22;16.10;;;;;;;10.60;100.00;100948.16;4935261;29;20032;-91
2024/01/29 04:31:34;;;;;;;40.78;16.88;;;;;;;10.60;100.00;100948.16;4934929;29;20031;-90
2024/01/29 04:33:59;;;;;;;37.78;17.13;;;;;;;10.61;100.00;100944.69;4932328;29;20034;-91
2024/01/29 04:36:24;;;;;;;47.10;15.85;;;;;;;10.66;100.00;100947.88;4934768;29;20031;-91
2024/01/29 04:38:50;;;;;;;36.08;14.95;;;;;;;10.73;100.00;100939.81;4934996;29;20123;-91
2024/01/29 04:41:19;;;;;;;39.60;15.88;;;;;;;10.66;100.00;100947.88;4934962;29;20481;-90
2024/01/29 04:43:45;;;;;;;37.75;14.57;;;;;;;10.74;100.00;100939.75;4934858;29;20496;-91
2024/01/29 04:46:11;;;;;;;45.92;16.30;;;;;;;10.69;100.00;100931.41;4933520;29;20031;-91
2024/01/29 04:48:37;;;;;;;36.80;15.45;;;;;;;10.67;100.00;100948.69;4932731;29;20578;-91
2024/01/29 04:51:07;;;;;;;38.55;16.77;;;;;;;10.78;100.00;100943.00;4933617;29;20102;-90
2024/01/29 04:53:33;;;;;;;34.50;13.85;;;;;;;10.77;100.00;100949.06;4934766;29;20028;-91
2024/01/29 04:56:00;;;;;;;31.85;12.90;;;;;;;10.76;100.00;100934.50;4934383;29;20023;-90
2024/01/29 04:58:26;;;;;;;40.50;14.75;;;;;;;10.70;100.00;100939.06;4934606;29;20035;-91
2024/01/29 05:00:51;;;;;;;34.60;15.68;;;;;;;10.66;100.00;100941.88;4934668;29;20023;-91
2024/01/29 05:03:16;;;;;;;31.33;13.82;;;;;;;10.67;100.00;100943.53;4933410;29;20509;-91
2024/01/29 05:05:42;;;;;;;37.03;14.85;;;;;;;10.61;100.00;100944.69;4934445;29;20046;-91
2024/01/29 05:08:07;;;;;;;33.55;14.10;;;;;;;10.65;100.00;100950.53;4934337;29;20036;-91
2024/01/29 05:10:33;;;;;;;40.08;16.00;;;;;;;10.65;100.00;100955.69;4934686;29;20055;-91
2024/01/29 05:12:59;;;;;;;40.28;14.73;;;;;;;10.68;100.00;100960.69;4934497;29;20027;-91
2024/01/29 05:15:24;;;;;;;40.88;14.38;;;;;;;10.69;100.00;100962.38;4934372;29;20409;-91
2024/01/29 05:17:50;;;;;;;41.65;13.40;;;;;;;10.76;100.00;100961.16;4933778;29;20028;-91
2024/01/29 05:20:15;;;;;;;42.20;14.57;;;;;;;10.75;100.00;100961.22;4934442;29;20059;-91
2024/01/29 05:22:42;;;;;;;39.35;12.80;;;;;;;10.78;100.00;100968.81;4934658;29;20023;-91
2024/01/29 05:25:08;;;;;;;30.45;13.35;;;;;;;10.81;100.00;100973.84;4934459;29;20024;-91
2024/01/29 05:27:33;;;;;;;39.45;14.13;;;;;;;10.77;100.00;100964.56;4932976;29;20086;-91
2024/01/29 05:29:58;;;;;;;46.85;15.95;;;;;;;10.78;100.00;100967.09;4934223;29;20546;-92
2024/01/29 05:32:24;;;;;;;46.83;14.55;;;;;;;10.77;100.00;100964.56;4933317;29;20113;-91
2024/01/29 05:34:49;;;;;;;41.22;13.57;;;;;;;10.83;100.00;100962.53;4934914;29;20032;-91
2024/01/29 05:37:14;;;;;;;27.50;12.98;;;;;;;10.84;100.00;100961.59;4937926;29;20119;-90
2024/01/29 05:39:40;;;;;;;34.60;13.63;;;;;;;10.87;100.00;100958.03;4938302;29;20475;-91
2024/01/29 05:42:05;;;;;;;41.40;13.18;;;;;;;10.98;100.00;100967.84;4938111;29;20031;-90
2024/01/29 05:44:31;;;;;;;39.17;14.88;;;;;;;10.88;100.00;100962.31;4937848;29;20106;-91
2024/01/29 05:46:56;;;;;;;42.13;13.15;;;;;;;10.85;100.00;100959.84;4936793;29;20036;-91
2024/01/29 05:49:22;;;;;;;44.28;14.15;;;;;;;10.89;100.00;100964.78;4937024;29;20032;-91
2024/01/29 05:51:48;;;;;;;34.45;13.38;;;;;;;10.86;100.00;100964.94;4937776;29;20086;-91
2024/01/29 05:54:13;;;;;;;42.88;13.60;;;;;;;10.95;100.00;100968.81;4937946;29;20028;-91
2024/01/29 05:56:42;;;;;;;40.63;15.05;;;;;;;10.90;100.00;100960.47;4937686;29;20028;-91
2024/01/29 05:59:08;;;;;;;35.63;13.60;;;;;;;10.81;100.00;100953.19;4937401;29;20028;-92
2024/01/29 06:01:34;;;;;;;37.60;15.00;;;;;;;10.84;100.00;100958.19;4968228;28;20410;-91
2024/01/29 06:03:59;;;;;;;35.00;14.13;;;;;;;10.83;100.00;100964.28;4937684;29;20474;-91
2024/01/29 06:06:25;;;;;;;43.03;13.70;;;;;;;10.83;100.00;100946.19;4937705;29;20378;-91
2024/01/29 06:08:50;;;;;;;53.22;14.20;;;;;;;10.85;100.00;100954.69;4937567;29;20023;-91
2024/01/29 06:11:15;;;;;;;32.97;13.65;;;;;;;10.84;100.00;100942.69;4937571;29;20027;-90
2024/01/29 06:13:41;;;;;;;33.92;13.10;;;;;;;10.86;100.00;100948.63;4937502;29;20028;-91
2024/01/29 06:16:06;;;;;;;39.92;13.40;;;;;;;10.84;100.00;100950.44;4936437;29;20066;-92
2024/01/29 06:18:32;;;;;;;48.83;15.68;;;;;;;10.83;100.00;100951.38;4936025;29;20558;-91
2024/01/29 06:20:57;;;;;;;46.75;14.57;;;;;;;10.82;100.00;100941.94;4935942;29;20058;-91
2024/01/29 06:23:23;;;;;;;41.55;15.43;;;;;;;10.79;100.00;100944.69;4937264;29;20495;-91
2024/01/29 06:25:49;;;;;;;35.97;13.30;;;;;;;10.82;100.00;100936.78;4937169;29;20024;-92
2024/01/29 06:28:14;;;;;;;32.05;13.45;;;;;;;10.92;100.00;100937.97;4937698;29;20538;-92
2024/01/29 06:30:40;;;;;;;35.83;12.50;;;;;;;10.93;100.00;100931.91;4936474;29;20457;-92
2024/01/29 06:33:06;;;;;;;32.92;11.93;;;;;;;10.89;100.00;100930.38;4937116;29;20095;-92
2024/01/29 06:35:31;;;;;;;30.58;12.45;;;;;;;10.92;100.00;100930.22;4936989;29;20023;-91
2024/01/29 06:37:56;;;;;;;35.28;12.18;;;;;;;10.99;100.00;100923.81;4937280;29;20028;-91
2024/01/29 06:40:27;;;;;;;38.83;12.93;;;;;;;11.05;100.00;100912.38;4937152;29;20047;-91
2024/01/29 06:42:55;;;;;;;44.10;13.13;;;;;;;11.12;100.00;100901.63;4935749;29;20036;-92
2024/01/29 06:45:20;;;;;;;34.67;13.27;;;;;;;10.95;100.00;100905.97;4935858;29;20058;-92
2024/01/29 06:47:46;;;;;;;37.50;12.07;;;;;;;10.93;100.00;100896.56;4936739;29;20063;-91
2024/01/29 06:50:11;;;;;;;40.13;12.60;;;;;;;10.97;100.00;100904.16;4937027;29;20027;-92
2024/01/29 06:52:37;;;;;;;42.88;13.65;;;;;;;10.97;100.00;100881.75;4936814;29;20059;-92
2024/01/29 06:55:03;;;;;;;34.60;11.80;;;;;;;10.89;100.00;100876.97;4935612;29;20028;-91
2024/01/29 06:57:28;;;;;;;41.78;12.43;;;;;;;10.98;100.00;100891.19;4936484;29;20435;-91
2024/01/29 06:59:54;;;;;;;35.20;11.70;;;;;;;11.05;100.00;100914.94;4932756;29;20546;-91
2024/01/29 07:02:19;;;;;;;33.25;13.27;;;;;;;10.99;100.00;100918.66;4932277;29;20032;-91
2024/01/29 07:04:44;;;;;;;33.03;12.88;;;;;;;10.89;100.00;100922.63;4936018;29;20040;-91
2024/01/29 07:07:10;;;;;;;41.90;13.93;;;;;;;10.90;100.00;100926.91;4936392;29;20035;-91
2024/01/29 07:09:35;;;;;;;47.90;14.55;;;;;;;10.84;100.00;100940.13;4936466;29;20032;-92
2024/01/29 07:12:01;;;;;;;33.47;12.65;;;;;;;10.89;100.00;100963.97;4935280;29;20066;-92
2024/01/29 07:14:26;;;;;;;35.00;14.05;;;;;;;10.85;100.00;100973.63;4935846;29;20051;-92
2024/01/29 07:16:51;;;;;;;54.38;15.70;;;;;;;10.81;100.00;100981.59;4935365;29;20027;-92
2024/01/29 07:19:22;;;;;;;48.13;16.35;;;;;;;10.78;100.00;100980.00;4933840;29;20071;-92
2024/01/29 07:21:49;;;;;;;39.20;16.55;;;;;;;10.78;100.00;100984.31;4936486;29;20101;-92
2024/01/29 07:24:14;;;;;;;52.20;16.00;;;;;;;10.79;100.00;100991.16;4936279;29;20035;-92
2024/01/29 07:26:40;;;;;;;40.45;15.20;;;;;;;10.74;100.00;100982.81;4936264;29;20026;-92
2024/01/29 07:29:05;;;;;;;44.90;16.13;;;;;;;10.70;100.00;100985.53;4936177;29;20390;-92
2024/01/29 07:31:30;;;;;;;40.55;17.25;;;;;;;10.63;100.00;100986.75;4936284;29;20091;-91
2024/01/29 07:33:56;;;;;;;48.55;15.48;;;;;;;10.75;100.00;100997.38;4935677;29;20036;-91
2024/01/29 07:36:22;;;;;;;42.40;17.27;;;;;;;10.76;100.00;101006.81;4935989;29;20372;-91
2024/01/29 07:38:48;;;;;;;46.42;16.65;;;;;;;10.73;100.00;101010.38;4936252;29;20034;-91
2024/01/29 07:41:13;;;;;;;40.28;15.20;;;;;;;10.75;100.00;100997.38;4936134;29;20422;-91
2024/01/29 07:43:39;;;;;;;41.80;16.23;;;;;;;10.71;100.00;101004.44;4935939;29;20103;-92
2024/01/29 07:46:04;;;;;;;42.72;15.27;;;;;;;10.72;100.00;101008.69;4935809;29;20482;-92
2024/01/29 07:48:30;;;;;;;47.92;17.45;;;;;;;10.75;100.00;101018.03;4934662;29;20036;-91
2024/01/29 07:50:56;;;;;;;41.28;16.45;;;;;;;10.71;100.00;101015.59;4935937;29;20089;-91
2024/01/29 07:53:22;;;;;;;48.00;16.95;;;;;;;10.76;100.00;101030.03;4936000;29;20127;-92
2024/01/29 07:55:47;;;;;;;39.55;16.40;;;;;;;10.75;100.00;101012.88;4935479;29;20565;-92
2024/01/29 07:58:13;;;;;;;45.47;16.15;;;;;;;10.75;100.00;101018.03;4934843;29;20020;-91
2024/01/29 08:00:39;;;;;;;41.45;15.32;;;;;;;10.77;100.00;101011.88;4935671;29;20410;-92
2024/01/29 08:03:06;;;;;;;53.60;16.77;;;;;;;10.70;100.00;101026.84;4934927;29;20039;-92
2024/01/29 08:05:32;;;;;;;41.72;18.35;;;;;;;10.74;100.00;101021.53;4934925;29;20028;-92
2024/01/29 08:07:57;;;;;;;45.38;16.52;;;;;;;10.69;100.00;101007.09;4935557;29;20489;-93
2024/01/29 08:10:23;;;;;;;38.55;16.95;;;;;;;10.72;100.00;101013.84;4934366;29;20152;-92
2024/01/29 08:12:48;;;;;;;48.45;16.92;;;;;;;10.79;100.00;101017.81;4934128;29;20030;-91
2024/01/29 08:15:14;;;;;;;45.60;17.77;;;;;;;10.74;100.00;101029.28;4935341;29;20042;-92
2024/01/29 08:17:40;;;;;;;46.28;16.73;;;;;;;10.69;100.00;101019.16;4934559;29;20031;-92
2024/01/29 08:20:06;;;;;;;46.45;17.52;;;;;;;10.61;100.00;101019.53;4935150;29;20028;-91
2024/01/29 08:22:31;;;;;;;39.20;16.52;;;;;;;10.63;100.00;101029.78;4966026;28;20024;-92
2024/01/29 08:24:56;;;;;;;36.97;14.98;;;;;;;10.73;100.00;101025.00;4935416;29;20032;-92
2024/01/29 08:27:22;;;;;;;40.45;15.52;;;;;;;10.70;100.00;101026.84;4935332;29;20036;-92
2024/01/29 08:29:47;;;;;;;38.67;15.50;;;;;;;10.65;100.00;101022.81;4935090;29;20471;-93
2024/01/29 08:32:13;;;;;;;44.10;17.38;;;;;;;10.63;100.00;101035.81;4932130;29;20048;-91
2024/01/29 08:34:38;;;;;;;49.80;18.20;;;;;;;10.58;100.00;101026.59;4945366;29;20027;-90
2024/01/29 08:37:04;;;;;;;44.50;16.95;;;;;;;10.58;100.00;101032.56;4933503;29;20394;-92
2024/01/29 08:39:30;;;;;;;43.97;17.50;;;;;;;10.55;100.00;101035.31;4935093;29;20031;-96
2024/01/29 08:41:56;;;;;;;43.25;16.73;;;;;;;10.55;100.00;101037.91;4934411;29;20442;-94
2024/01/29 08:44:21;;;;;;;48.67;18.67;;;;;;;10.56;100.00;101039.59;4946738;29;20523;-92
2024/01/29 08:46:46;;;;;;;43.78;17.30;;;;;;;10.58;100.00;101027.41;4953583;29;20102;-93
2024/01/29 08:49:14;;;;;;;63.70;19.63;;;;;;;10.55;100.00;101035.31;4953057;29;20488;-92
2024/01/29 08:51:40;;;;;;;54.22;17.35;;;;;;;10.58;100.00;101032.56;4932429;28;20023;-92
2024/01/29 08:54:05;;;;;;;39.65;16.67;;;;;;;10.48;100.00;101031.34;4931202;29;20038;-91
2024/01/29 08:56:31;;;;;;;42.72;16.75;;;;;;;10.55;100.00;101031.91;4931368;29;20032;-91
2024/01/29 08:58:57;;;;;;;40.78;16.88;;;;;;;10.50;100.00;101021.78;4931144;29;20470;-91
2024/01/29 09:01:22;;;;;;;44.90;18.42;;;;;;;10.54;100.00;101030.25;4928931;29;20038;-91
2024/01/29 09:03:47;;;;;;;52.20;17.33;;;;;;;10.57;100.00;101024.94;4930383;29;20398;-92
2024/01/29 09:06:13;;;;;;;41.00;16.80;;;;;;;10.52;100.00;101019.97;4930718;29;20111;-91
2024/01/29 09:08:41;;;;;;;41.00;17.20;;;;;;;10.47;100.00;101029.69;4931085;29;20130;-91
2024/01/29 09:11:07;;;;;;;46.30;19.50;;;;;;;10.53;100.00;101013.91;4937462;29;20487;-91
2024/01/29 09:13:32;;;;;;;37.05;17.17;;;;;;;10.57;100.00;101017.19;4934873;29;20122;-91
2024/01/29 09:15:58;;;;;;;40.45;17.92;;;;;;;10.53;100.00;101016.47;4933425;29;20368;-92
2024/01/29 09:18:24;;;;;;;38.08;16.95;;;;;;;10.52;100.00;101012.25;4937953;29;20028;-95
2024/01/29 09:20:49;;;;;;;40.75;16.33;;;;;;;10.57;100.00;101018.00;4936164;29;20163;-93
2024/01/29 09:23:15;;;;;;;40.25;17.15;;;;;;;10.59;100.00;101018.78;4937019;29;20027;-95
2024/01/29 09:25:41;;;;;;;37.65;15.73;;;;;;;10.64;100.00;101031.47;4936839;29;20514;-91
2024/01/29 09:28:07;;;;;;;37.30;15.77;;;;;;;10.61;100.00;101010.97;4937314;29;20502;-92
2024/01/29 09:30:32;;;;;;;34.40;15.93;;;;;;;10.56;100.00;101016.34;4935663;29;20059;-90
2024/01/29 09:32:58;;;;;;;39.13;17.42;;;;;;;10.59;100.00;101017.94;4936871;29;20398;-91
2024/01/29 09:35:24;;;;;;;30.63;16.17;;;;;;;10.67;100.00;101019.22;4936731;28;20055;-90
2024/01/29 09:37:49;;;;;;;31.70;14.77;;;;;;;10.68;100.00;101018.34;4937246;29;20062;-91
2024/01/29 09:40:14;;;;;;;32.70;14.50;;;;;;;10.64;100.00;101011.66;4936709;29;20046;-92
2024/01/29 09:42:41;;;;;;;37.40;16.40;;;;;;;10.63;100.00;101025.47;4935800;29;20170;-91
2024/01/29 09:45:10;;;;;;;33.58;15.88;;;;;;;10.70;100.00;101026.84;4935496;29;20115;-91
2024/01/29 09:47:37;;;;;;;35.47;14.98;;;;;;;10.71;100.00;101023.34;4935676;29;20028;-91
2024/01/29 09:50:06;;;;;;;32.47;15.30;;;;;;;10.59;100.00;101017.94;4937715;29;20371;-90
2024/01/29 09:52:35;;;;;;;33.03;15.35;;;;;;;10.62;100.00;101016.03;4950752;28;20393;-92
2024/01/29 09:55:02;;;;;;;34.25;15.25;;;;;;;10.70;100.00;101010.50;4936109;29;20723;-90
2024/01/29 09:57:27;;;;;;;30.65;16.08;;;;;;;10.64;100.00;101005.66;4936354;29;20032;-90
2024/01/29 09:59:53;;;;;;;30.25;14.73;;;;;;;10.66;100.00;101009.00;4934326;29;20111;-90
2024/01/29 10:02:19;;;;;;;34.15;15.30;;;;;;;10.62;100.00;101026.38;4936892;29;20226;-92
2024/01/29 10:04:45;;;;;;;31.25;14.75;;;;;;;10.73;100.00;101010.38;4936096;29;20398;-90
2024/01/29 10:07:11;;;;;;;23.13;13.40;;;;;;;10.74;100.00;101013.78;4934924;29;20024;-91
2024/01/29 10:09:36;;;;;;;32.47;12.90;;;;;;;10.81;100.00;101015.16;4935712;29;20453;-90
2024/01/29 10:12:03;;;;;;;25.95;11.43;;;;;;;10.82;100.00;101015.06;4935034;29;20107;-91
2024/01/29 10:14:28;;;;;;;35.40;13.85;;;;;;;10.65;100.00;101015.88;4936060;29;20031;-91
2024/01/29 10:16:53;;;;;;;27.10;11.98;;;;;;;10.74;100.00;101008.63;4933817;29;20046;-92
2024/01/29 10:19:19;;;;;;;26.48;12.38;;;;;;;10.71;100.00;101005.28;4935788;29;20114;-92
2024/01/29 10:21:45;;;;;;;30.23;12.07;;;;;;;10.66;100.00;101012.41;4931378;29;20035;-94
2024/01/29 10:24:16;;;;;;;20.38;11.80;;;;;;;10.82;100.00;101009.91;4930608;29;20042;-90
2024/01/29 10:26:42;;;;;;;26.55;11.65;;;;;;;10.75;100.00;101007.69;4932723;29;20102;-90
2024/01/29 10:29:09;;;;;;;24.13;12.50;;;;;;;10.83;100.00;101010.75;4933772;29;20360;-91
2024/01/29 10:31:35;;;;;;;26.00;13.77;;;;;;;10.89;100.00;101003.53;4933184;29;20035;-91
2024/01/29 10:34:01;;;;;;;20.02;11.00;;;;;;;10.86;100.00;101010.59;4929559;29;20090;-92
2024/01/29 10:36:27;;;;;;;22.25;11.20;;;;;;;10.78;100.00;101012.69;4930890;29;20036;-93
2024/01/29 10:38:53;;;;;;;20.00;10.35;;;;;;;10.92;100.00;101025.78;4931103;29;20422;-91
2024/01/29 10:41:21;;;;;;;23.02;10.15;;;;;;;10.73;100.00;101023.28;4930754;29;20465;-92
2024/01/29 10:43:53;;;;;;;21.00;9.38;;;;;;;10.84;100.00;101044.22;4932280;29;20028;-91
2024/01/29 10:46:20;;;;;;;20.63;11.25;;;;;;;10.86;100.00;101041.59;4945135;28;20030;-93
2024/01/29 10:48:47;;;;;;;18.42;10.52;;;;;;;10.98;100.00;101060.81;4930893;29;20402;-92
2024/01/29 10:51:14;;;;;;;24.95;9.55;;;;;;;10.91;100.00;101061.09;4931094;29;20483;-92
2024/01/29 10:53:44;;;;;;;18.27;10.05;;;;;;;10.71;100.00;101054.31;4933046;29;20040;-92
2024/01/29 10:56:10;;;;;;;19.63;9.63;;;;;;;10.70;100.00;101052.66;4930893;29;20027;-91